AirNav   TITAN Aviation Fuels
 
 1138 users online  

LL26 Schaller Airport
New Athens, Illinois, USA

GOING TO NEW ATHENS?


FAA INFORMATION EFFECTIVE 01 DECEMBER 2022

Location

FAA Identifier: LL26
Lat/Long: 38-16-30.1770N 089-52-15.3690W
38-16.502950N 089-52.256150W
38.2750492,-89.8709358
(estimated)
Elevation: 434 ft. / 132 m (estimated)
Variation: 02E (1985)
From city: 3 miles S of NEW ATHENS, IL
Time zone: UTC -6 (UTC -5 during Daylight Saving Time)
Zip code: 62264

Airport Operations

Airport use: Private use. Permission required prior to landing
Activation date: 09/1968
Control tower: no
ARTCC: KANSAS CITY CENTER
FSS: SAINT LOUIS FLIGHT SERVICE STATION
Attendance: UNATNDD
Wind indicator: yes
Segmented circle: no

Airport Communications

WX AWOS-3 at SAR (11 nm SE): 118.375 (618-443-3296)

Nearby radio navigation aids

VOR radial/distance  VOR name  Freq  Var
TOYr171/27.9TROY VORTAC116.0004E
ENLr251/34.6CENTRALIA VORTAC115.0004E
FAMr024/40.0FARMINGTON VORTAC115.7001E

 
NDB name  Hdg/Dist  Freq  Var  ID
GOOEY209/13.738502WJD .--- -..

Airport Services

Airframe service: NONE
Powerplant service: NONE

Runway Information

Runway 18/36

Dimensions: 2235 x 90 ft. / 681 x 27 m
Surface: turf
RUNWAY 18  RUNWAY 36
Traffic pattern: leftright

Airport Ownership and Management from official FAA records

Ownership: Privately-owned
Owner: NEIL SCHALLER
1414 BALDWIN ROAD
NEW ATHENS, IL 62264
Phone 618-550-5580
Manager: NEIL SCHALLER
1414 BALDWIN ROAD
NEW ATHENS, IL 62264
Phone 618-550-5580

Airport Operational Statistics

Aircraft based on the field: 3
Single engine airplanes: 3
    

Additional Remarks

AIRPORT USED FOR AG SPRAYING & AG RELATED BUSINESS.
FOR CD CTC ST LOUIS APCH AT 314-890-1018.

Instrument Procedures

There are no published instrument procedures at LL26.

Some nearby airports with instrument procedures:

KSAR - Sparta Community Airport-Hunter Field (11 nm SE)
KBLV - Scott Air Force Base/MidAmerica Airport (16 nm N)
KCPS - St Louis Downtown Airport (22 nm NW)
KPCD - Perryville Regional Airport (24 nm S)
KFES - Festus Memorial Airport (25 nm W)
 
Loc | Ops | Rwys | IFR | FBO | Links
Com | Nav | Svcs | Stats | Notes
Area around LL26 (Schaller Airport)
 
Road maps at: MapQuest Bing Google
 
Aerial photo
No photo
 
Sectional chart

 
Airport distance calculator
Flying to Schaller Airport? Find the distance to fly.

From to LL26

Sunrise and sunset
Times for 07-Dec-2022
 Local
(UTC-6)
 Zulu
(UTC)
Morning civil twilight06:3512:35
Sunrise07:0413:04
Sunset16:3822:38
Evening civil twilight17:0723:07

Current date and time
Zulu (UTC)  07-Dec-2022 13:41:26
Local (UTC-6)  07-Dec-2022 07:41:26
 
METAR
KSAR 
11nm SE 
071315Z AUTO 35003KT 1/2SM FG OVC002 07/07 A3020 RMK AO2 T00710071
KBLV 
16nm N 
071255Z 36003KT 2 3/4SM BR OVC029 08/08 A3020 RMK AO2A SLPNO ALSTG ESTMD RVRNO TSNO $
KCPS 
22nm NW 
071253Z 01003KT 5SM BR SCT005 OVC030 07/07 A3019 RMK AO2 RAE35 SLP224 P0000 T00720067
TAF
KBLV 
16nm N 
070800Z 0708/0814 03006KT 3200 BR OVC003 QNH3008INS BECMG 0715/0716 35006KT 8000 BR SCT003 OVC006 QNH3024INS BECMG 0721/0722 36006KT 9000 BR SCT006 OVC015 QNH3025INS BECMG 0801/0802 01006KT 8000 BR BKN006 OVC015 QNH3024INS TX11/0720Z TN07/0711Z
NOTAMs
Click for the latest NOTAMs
NOTAMs are issued by the DoD/FAA and will open in a separate window not controlled by AirNav.

 

 
 

Would you like to see your business listed on this page?

 If your business provides an interesting product or service to pilots, flight crews, aircraft, or users of the Schaller Airport, you should consider listing it here.  To start the listing process, click on the button below
 
Add a business
 

Other Pages about Schaller Airport

Update a link
 
Copyright © AirNav, LLC. All rights reserved. Privacy Policy  Contact